createdAt,value
2022-11-29T00:04:19.270Z,99016.4
2022-11-29T00:09:54.625Z,99015.8
2022-11-29T00:15:30.614Z,99004.5
2022-11-29T00:21:07.209Z,99008.6
2022-11-29T00:26:42.587Z,98999.5
2022-11-29T00:32:17.758Z,98993.8
2022-11-29T00:37:53.325Z,98988.7
2022-11-29T00:43:29.541Z,98992.7
2022-11-29T00:49:26.722Z,98993
2022-11-29T00:54:59.801Z,98990.1
2022-11-29T01:00:35.657Z,98984.9
2022-11-29T01:06:11.069Z,98976.2
2022-11-29T01:11:46.095Z,98974.8
2022-11-29T01:17:21.041Z,98969.5
2022-11-29T01:22:56.205Z,98970.7
2022-11-29T01:28:32.605Z,98980.1
2022-11-29T01:34:07.747Z,98987.2
2022-11-29T01:39:42.940Z,98988
2022-11-29T01:45:20.725Z,98978.2
2022-11-29T01:50:56.774Z,98975.7
2022-11-29T01:56:33.351Z,98970.5
2022-11-29T02:02:08.834Z,98971.9
2022-11-29T02:07:44.875Z,98969.3
2022-11-29T02:13:21.140Z,98962.5
2022-11-29T02:18:55.913Z,98956.3
2022-11-29T02:24:37.572Z,98956.5
2022-11-29T02:30:13.579Z,98953.9
2022-11-29T02:35:48.546Z,98950.6
2022-11-29T02:41:24.962Z,98951.5
2022-11-29T02:47:22.458Z,98950.5
2022-11-29T02:52:55.229Z,98948.7
2022-11-29T02:58:30.480Z,98948.6
2022-11-29T03:04:05.676Z,98945.2
2022-11-29T03:09:40.920Z,98927.1
2022-11-29T03:15:16.018Z,98921.9
2022-11-29T03:20:53.243Z,98914.1
2022-11-29T03:26:28.257Z,98912.7
2022-11-29T03:32:04.344Z,98914.8
2022-11-29T03:37:39.080Z,98918.1
2022-11-29T03:43:16.494Z,98920.6
2022-11-29T03:49:19.266Z,98923.7
2022-11-29T03:54:51.758Z,98922.4
2022-11-29T04:00:27.755Z,98915.1
2022-11-29T04:06:03.127Z,98920.5
2022-11-29T04:11:56.868Z,98920.9
2022-11-29T04:17:32.292Z,98915.5
2022-11-29T04:23:29.093Z,98925.6
2022-11-29T04:29:04.209Z,98927.2
2022-11-29T04:34:39.598Z,98912.1
2022-11-29T04:40:15.343Z,98915.8
2022-11-29T04:45:50.341Z,98922.6
2022-11-29T04:51:25.872Z,98925
2022-11-29T04:57:01.470Z,98924
2022-11-29T05:02:52.256Z,98923.2
2022-11-29T05:08:33.676Z,98919.6
2022-11-29T05:14:08.767Z,98923.5
2022-11-29T05:19:44.266Z,98924.7
2022-11-29T05:25:19.445Z,98925.2
2022-11-29T05:30:55.235Z,98928.9
2022-11-29T05:36:34.043Z,98933.4
2022-11-29T05:42:08.956Z,98932.1
2022-11-29T05:48:14.622Z,98934.5
2022-11-29T05:53:47.789Z,98938.1
2022-11-29T05:59:23.006Z,98944.1
2022-11-29T06:04:57.869Z,98943.1
2022-11-29T06:10:32.683Z,98945.8
2022-11-29T06:16:58.875Z,98948.4
2022-11-29T06:22:52.322Z,98948.8
2022-11-29T06:28:46.498Z,98949.3
2022-11-29T06:34:47.259Z,98950.4
2022-11-29T06:40:23.941Z,98948.9
2022-11-29T06:46:29.992Z,98951.1
2022-11-29T06:52:03.244Z,98954
2022-11-29T06:57:38.000Z,98956
2022-11-29T07:03:13.388Z,98958.5
2022-11-29T07:08:48.400Z,98961.7
2022-11-29T07:14:24.218Z,98961.8
2022-11-29T07:19:59.631Z,98964.3
2022-11-29T07:25:36.048Z,98961
2022-11-29T07:31:11.315Z,98961.8
2022-11-29T07:36:50.451Z,98967.5
2022-11-29T07:42:31.341Z,98973.3
2022-11-29T07:48:39.386Z,98977
2022-11-29T07:54:12.569Z,98976.4
2022-11-29T07:59:51.280Z,98980.5
2022-11-29T08:05:36.334Z,98981.5
2022-11-29T08:11:16.123Z,98990.6
2022-11-29T08:16:52.494Z,98997
2022-11-29T08:22:36.206Z,99002.1
2022-11-29T08:28:14.707Z,99002.2
2022-11-29T08:33:50.837Z,98997.2
2022-11-29T08:39:29.835Z,99000.6
2022-11-29T08:45:06.378Z,99004.5
2022-11-29T08:50:41.993Z,99012.8
2022-11-29T08:57:45.257Z,99014.9
2022-11-29T09:03:54.523Z,99010.9
2022-11-29T09:09:40.198Z,99017.9
2022-11-29T09:15:20.256Z,99017.3
2022-11-29T09:20:58.528Z,99027.5
2022-11-29T09:26:33.667Z,99027.1
2022-11-29T09:32:08.811Z,99041.1
2022-11-29T09:37:44.504Z,99043.3
2022-11-29T09:43:20.167Z,99045.1
2022-11-29T09:48:58.523Z,99045.4
2022-11-29T09:54:33.442Z,99045.5
2022-11-29T10:00:12.561Z,99046.5
2022-11-29T10:06:09.286Z,99052.5
2022-11-29T10:11:44.804Z,99052.7
2022-11-29T10:17:20.211Z,99057.1
2022-11-29T10:23:16.171Z,99057.2
2022-11-29T10:29:11.304Z,99052.5
2022-11-29T10:34:47.939Z,99060
2022-11-29T10:40:24.626Z,99054.7
2022-11-29T10:45:59.999Z,99047.3
2022-11-29T10:51:57.101Z,99039.2
2022-11-29T10:57:33.597Z,99027.8
2022-11-29T11:03:09.105Z,99026.4
2022-11-29T11:08:44.003Z,99023
2022-11-29T11:14:20.328Z,99010.9
2022-11-29T11:19:55.727Z,99006.4
2022-11-29T11:25:32.986Z,98999.6
2022-11-29T11:31:13.661Z,98997.1
2022-11-29T11:36:50.375Z,98986.3
2022-11-29T11:42:34.875Z,98987.5
2022-11-29T11:48:36.811Z,98987.2
2022-11-29T11:54:10.106Z,98984.4
2022-11-29T11:59:46.455Z,98983.7
2022-11-29T12:05:22.469Z,98994.4
2022-11-29T12:10:57.374Z,98991.7
2022-11-29T12:17:08.354Z,98991.4
2022-11-29T12:22:49.070Z,98984
2022-11-29T12:28:38.239Z,98983
2022-11-29T12:34:13.648Z,98978.7
2022-11-29T12:39:48.447Z,98971.9
2022-11-29T12:45:25.225Z,98970.2
2022-11-29T12:51:02.817Z,98966.5
2022-11-29T12:58:23.495Z,98965.3
2022-11-29T13:03:59.730Z,98963.9
2022-11-29T13:09:54.444Z,98961.3
2022-11-29T13:15:30.314Z,98960.5
2022-11-29T13:21:07.160Z,98960.1
2022-11-29T13:26:43.111Z,98947.7
2022-11-29T13:32:25.513Z,98940
2022-11-29T13:38:05.330Z,98940.9
2022-11-29T13:43:51.923Z,98940.1
2022-11-29T13:49:39.705Z,98934.6
2022-11-29T13:55:15.191Z,98924.9
2022-11-29T14:00:50.323Z,98924.2
2022-11-29T14:06:26.390Z,98915.7
2022-11-29T14:12:09.446Z,98915.8
2022-11-29T14:18:11.018Z,98919
2022-11-29T14:23:47.180Z,98918.8
2022-11-29T14:30:24.558Z,98915.5
2022-11-29T14:35:59.719Z,98909.8
2022-11-29T14:41:34.735Z,98906.2
2022-11-29T14:47:09.983Z,98902.9
2022-11-29T14:52:48.610Z,98906.9
2022-11-29T14:58:31.911Z,98905.2
2022-11-29T15:04:07.018Z,98911.8
2022-11-29T15:09:42.533Z,98920.8
2022-11-29T15:15:17.653Z,98928.4
2022-11-29T15:20:54.800Z,98945.6
2022-11-29T15:26:29.749Z,98952.1
2022-11-29T15:32:05.216Z,98948.8
2022-11-29T15:37:41.016Z,98945.1
2022-11-29T15:43:29.474Z,98940.1
2022-11-29T15:49:06.919Z,98938.5
2022-11-29T15:54:45.390Z,98941
2022-11-29T16:00:23.188Z,98944.1
2022-11-29T16:05:57.684Z,98944.8
2022-11-29T16:11:33.778Z,98942.3
2022-11-29T16:17:08.937Z,98941.8
2022-11-29T16:22:53.874Z,98935.8
2022-11-29T16:28:30.447Z,98929.9
2022-11-29T16:34:06.037Z,98928.5
2022-11-29T16:39:40.880Z,98932.8
2022-11-29T16:45:16.240Z,98933.7
2022-11-29T16:50:52.427Z,98942.3
2022-11-29T16:56:32.372Z,98953.6
2022-11-29T17:02:35.537Z,98951.4
2022-11-29T17:08:11.325Z,98947.8
2022-11-29T17:13:47.810Z,98949.2
2022-11-29T17:19:24.360Z,98953.7
2022-11-29T17:25:11.599Z,98947.7
2022-11-29T17:30:54.706Z,98941.3
2022-11-29T17:36:32.852Z,98942.3
2022-11-29T17:42:08.037Z,98937.4
2022-11-29T17:48:04.722Z,98932.4
2022-11-29T17:53:37.552Z,98934.3
2022-11-29T17:59:13.078Z,98936.3
2022-11-29T18:05:10.333Z,98928.8
2022-11-29T18:10:58.623Z,98930.6
2022-11-29T18:16:46.725Z,98933.8
2022-11-29T18:22:29.075Z,98935
2022-11-29T18:28:04.355Z,98931.5
2022-11-29T18:34:25.464Z,98933.7
2022-11-29T18:40:00.800Z,98933
2022-11-29T18:45:57.586Z,98932.5
2022-11-29T18:51:33.507Z,98935.3
2022-11-29T18:57:08.972Z,98942.7
2022-11-29T19:02:50.139Z,98946.3
2022-11-29T19:08:25.546Z,98944.3
2022-11-29T19:14:01.831Z,98945.5
2022-11-29T19:19:39.060Z,98941.2
2022-11-29T19:25:14.284Z,98938.4
2022-11-29T19:30:49.614Z,98935
2022-11-29T19:36:29.067Z,98937.2
2022-11-29T19:42:25.396Z,98928
2022-11-29T19:48:05.981Z,98920.9
2022-11-29T19:53:40.814Z,98925.5
2022-11-29T19:59:16.123Z,98929.6
2022-11-29T20:04:51.359Z,98930.9
2022-11-29T20:10:26.564Z,98930.6
2022-11-29T20:16:02.548Z,98927
2022-11-29T20:21:38.264Z,98930.4
2022-11-29T20:27:13.539Z,98926.6
2022-11-29T20:32:49.151Z,98931.9
2022-11-29T20:38:24.197Z,98929.8
2022-11-29T20:43:58.977Z,98933.6
2022-11-29T20:49:33.819Z,98931.9
2022-11-29T20:55:08.489Z,98935.9
2022-11-29T21:00:46.679Z,98935.4
2022-11-29T21:06:42.962Z,98932.5
2022-11-29T21:12:18.830Z,98933.6
2022-11-29T21:17:53.873Z,98931.8
2022-11-29T21:23:28.990Z,98928.9
2022-11-29T21:29:05.038Z,98928
2022-11-29T21:35:02.239Z,98925.7
2022-11-29T21:40:37.651Z,98919.5
2022-11-29T21:46:13.034Z,98915
2022-11-29T21:51:50.821Z,98911.4
2022-11-29T21:57:27.056Z,98910.3
2022-11-29T22:03:02.530Z,98899
2022-11-29T22:08:38.178Z,98892.9
2022-11-29T22:14:28.313Z,98894.5
2022-11-29T22:20:03.514Z,98885.6
2022-11-29T22:25:43.643Z,98879.2
2022-11-29T22:31:20.419Z,98873.3
2022-11-29T22:36:56.177Z,98870.3
2022-11-29T22:42:31.522Z,98869.2
2022-11-29T22:48:28.617Z,98864.8
2022-11-29T22:54:03.757Z,98864.7
2022-11-29T22:59:38.509Z,98872
2022-11-29T23:05:13.988Z,98872.6
2022-11-29T23:10:49.032Z,98871
2022-11-29T23:16:24.594Z,98871.5
2022-11-29T23:22:00.037Z,98875.2
2022-11-29T23:27:36.078Z,98871.3
2022-11-29T23:33:11.872Z,98870.7
2022-11-29T23:38:48.145Z,98871.5
2022-11-29T23:44:23.304Z,98871.2
2022-11-29T23:49:59.225Z,98870.8
2022-11-29T23:55:34.624Z,98865.5
